createdAt,value
2023-04-27T00:00:09.583Z,518.58
2023-04-27T00:00:20.612Z,518.56
2023-04-27T00:00:32.589Z,518.58
2023-04-27T00:00:43.598Z,518.59
2023-04-27T00:00:54.592Z,518.59
2023-04-27T00:01:05.580Z,518.57
2023-04-27T00:01:16.614Z,518.59
2023-04-27T00:01:27.607Z,518.57
2023-04-27T00:01:38.619Z,518.58
2023-04-27T00:01:50.617Z,518.57
2023-04-27T00:02:02.645Z,518.58
2023-04-27T00:02:13.664Z,518.57
2023-04-27T00:02:24.614Z,518.59
2023-04-27T00:02:35.709Z,518.58
2023-04-27T00:02:46.829Z,518.60
2023-04-27T00:02:57.706Z,518.61
2023-04-27T00:03:08.879Z,518.61
2023-04-27T00:03:19.871Z,518.60
2023-04-27T00:03:30.891Z,518.59
2023-04-27T00:03:42.787Z,518.59
2023-04-27T00:03:54.748Z,518.59
2023-04-27T00:04:05.780Z,518.59
2023-04-27T00:04:17.832Z,518.59
2023-04-27T00:04:28.722Z,518.60
2023-04-27T00:04:39.769Z,518.61
2023-04-27T00:04:51.843Z,518.63
2023-04-27T00:05:02.853Z,518.65
2023-04-27T00:05:13.764Z,518.66
2023-04-27T00:05:25.624Z,518.66
2023-04-27T00:05:36.814Z,518.65
2023-04-27T00:05:47.737Z,518.69
2023-04-27T00:05:58.730Z,518.67
2023-04-27T00:06:09.670Z,518.70
2023-04-27T00:06:21.674Z,518.70
2023-04-27T00:06:32.604Z,518.74
2023-04-27T00:06:43.605Z,518.75
2023-04-27T00:06:54.577Z,518.74
2023-04-27T00:07:05.582Z,518.76
2023-04-27T00:07:16.613Z,518.76
2023-04-27T00:07:27.606Z,518.76
2023-04-27T00:07:38.604Z,518.77
2023-04-27T00:07:49.609Z,518.79
2023-04-27T00:08:00.607Z,518.77
2023-04-27T00:08:11.689Z,518.79
2023-04-27T00:08:22.581Z,518.80
2023-04-27T00:08:33.595Z,518.82
2023-04-27T00:08:44.601Z,518.82
2023-04-27T00:08:55.620Z,518.81
2023-04-27T00:09:07.579Z,518.81
2023-04-27T00:09:18.576Z,518.83
2023-04-27T00:09:29.580Z,518.85
2023-04-27T00:09:40.581Z,518.83
2023-04-27T00:09:51.577Z,518.84
2023-04-27T00:10:02.602Z,518.85
2023-04-27T00:10:13.602Z,518.86
2023-04-27T00:10:24.609Z,518.89
2023-04-27T00:10:35.616Z,518.88
2023-04-27T00:10:46.601Z,518.90
2023-04-27T00:10:58.583Z,518.91
2023-04-27T00:11:09.579Z,518.91
2023-04-27T00:11:20.578Z,518.91
2023-04-27T00:11:31.606Z,518.93
2023-04-27T00:11:42.595Z,518.94
2023-04-27T00:11:54.574Z,518.91
2023-04-27T00:12:06.573Z,518.92
2023-04-27T00:12:17.588Z,518.92
2023-04-27T00:12:28.591Z,518.94
2023-04-27T00:12:40.579Z,518.93
2023-04-27T00:12:51.568Z,518.98
2023-04-27T00:13:02.565Z,518.95
2023-04-27T00:13:13.570Z,518.99
2023-04-27T00:13:24.574Z,518.96
2023-04-27T00:13:35.571Z,518.97
2023-04-27T00:13:46.565Z,518.95
2023-04-27T00:13:57.599Z,518.94
2023-04-27T00:14:08.596Z,518.94
2023-04-27T00:14:20.577Z,518.98
2023-04-27T00:14:31.562Z,518.98
2023-04-27T00:14:42.575Z,518.96
2023-04-27T00:14:53.573Z,518.98
2023-04-27T00:15:04.570Z,518.96
2023-04-27T00:15:15.604Z,518.92
2023-04-27T00:15:26.614Z,518.89
2023-04-27T00:15:38.583Z,518.87
2023-04-27T00:15:49.569Z,518.84
2023-04-27T00:16:00.595Z,518.84
2023-04-27T00:16:11.609Z,518.84
2023-04-27T00:16:23.648Z,518.85
2023-04-27T00:16:34.684Z,518.83
2023-04-27T00:16:45.647Z,518.82
2023-04-27T00:16:56.568Z,518.79
2023-04-27T00:17:07.566Z,518.77
2023-04-27T00:17:18.584Z,518.77
2023-04-27T00:17:29.611Z,518.74
2023-04-27T00:17:41.649Z,518.72
2023-04-27T00:17:52.703Z,518.71
2023-04-27T00:18:04.695Z,518.69
2023-04-27T00:18:15.595Z,518.71
2023-04-27T00:18:26.586Z,518.72
2023-04-27T00:18:37.584Z,518.73
2023-04-27T00:18:48.579Z,518.72
2023-04-27T00:18:59.562Z,518.70
2023-04-27T00:19:10.574Z,518.70
2023-04-27T00:19:21.554Z,518.66
2023-04-27T00:19:32.548Z,518.67
2023-04-27T00:19:43.546Z,518.70
2023-04-27T00:19:54.563Z,518.69
2023-04-27T00:20:05.557Z,518.71
2023-04-27T00:20:16.552Z,518.70
2023-04-27T00:20:27.576Z,518.71
2023-04-27T00:20:38.569Z,518.72
2023-04-27T00:20:49.569Z,518.71
2023-04-27T00:21:00.543Z,518.71
2023-04-27T00:21:11.559Z,518.70
2023-04-27T00:21:22.584Z,518.72
2023-04-27T00:21:33.582Z,518.70
2023-04-27T00:21:44.589Z,518.71
2023-04-27T00:21:55.587Z,518.71
2023-04-27T00:22:06.577Z,518.73
2023-04-27T00:22:17.575Z,518.73
2023-04-27T00:22:28.584Z,518.70
2023-04-27T00:22:39.578Z,518.69
2023-04-27T00:22:50.582Z,518.72
2023-04-27T00:23:01.596Z,518.70
2023-04-27T00:23:12.601Z,518.72
2023-04-27T00:23:23.607Z,518.67
2023-04-27T00:23:35.580Z,518.70
2023-04-27T00:23:46.606Z,518.68
2023-04-27T00:23:57.611Z,518.70
2023-04-27T00:24:08.597Z,518.68
2023-04-27T00:24:19.638Z,518.67
2023-04-27T00:24:31.596Z,518.68
2023-04-27T00:24:42.590Z,518.67
2023-04-27T00:24:53.596Z,518.66
2023-04-27T00:25:04.625Z,518.68
2023-04-27T00:25:16.593Z,518.67
2023-04-27T00:25:27.589Z,518.67
2023-04-27T00:25:38.587Z,518.69
2023-04-27T00:25:49.587Z,518.65
2023-04-27T00:26:00.576Z,518.66
2023-04-27T00:26:11.573Z,518.67
2023-04-27T00:26:23.597Z,518.68
2023-04-27T00:26:34.602Z,518.68
2023-04-27T00:26:45.605Z,518.71
2023-04-27T00:26:56.604Z,518.74
2023-04-27T00:27:08.571Z,518.73
2023-04-27T00:27:19.569Z,518.74
2023-04-27T00:27:30.573Z,518.73
2023-04-27T00:27:41.574Z,518.76
2023-04-27T00:27:53.578Z,518.75
2023-04-27T00:28:04.574Z,518.76
2023-04-27T00:28:15.582Z,518.76
2023-04-27T00:28:27.575Z,518.74
2023-04-27T00:28:38.592Z,518.73
2023-04-27T00:28:49.597Z,518.75
2023-04-27T00:29:01.588Z,518.74
2023-04-27T00:29:12.766Z,518.75
2023-04-27T00:29:23.572Z,518.75
2023-04-27T00:29:34.604Z,518.75
2023-04-27T00:29:45.601Z,518.74
2023-04-27T00:29:56.607Z,518.74
2023-04-27T00:30:07.601Z,518.72
2023-04-27T00:30:18.596Z,518.71
2023-04-27T00:30:29.616Z,518.68
2023-04-27T00:30:40.603Z,518.70
2023-04-27T00:30:51.600Z,518.71
2023-04-27T00:31:02.593Z,518.67
2023-04-27T00:31:13.582Z,518.66
2023-04-27T00:31:24.609Z,518.66
2023-04-27T00:31:36.611Z,518.66
2023-04-27T00:31:48.643Z,518.61
2023-04-27T00:31:59.586Z,518.63
2023-04-27T00:32:10.795Z,518.61
2023-04-27T00:32:22.603Z,518.59
2023-04-27T00:32:33.602Z,518.58
2023-04-27T00:32:45.610Z,518.57
2023-04-27T00:32:56.650Z,518.60
2023-04-27T00:33:07.669Z,518.60
2023-04-27T00:33:19.612Z,518.60
2023-04-27T00:33:31.569Z,518.60
2023-04-27T00:33:42.569Z,518.61
2023-04-27T00:33:53.583Z,518.59
2023-04-27T00:34:04.572Z,518.62
2023-04-27T00:34:15.579Z,518.61
2023-04-27T00:34:26.608Z,518.61
2023-04-27T00:34:38.607Z,518.62
2023-04-27T00:34:49.594Z,518.62
2023-04-27T00:35:01.596Z,518.62
2023-04-27T00:35:12.597Z,518.60
2023-04-27T00:35:23.584Z,518.57
2023-04-27T00:35:34.579Z,518.59
2023-04-27T00:35:45.571Z,518.56
2023-04-27T00:35:56.560Z,518.56
2023-04-27T00:36:07.572Z,518.56
2023-04-27T00:36:18.580Z,518.57
2023-04-27T00:36:29.609Z,518.54
2023-04-27T00:36:40.601Z,518.58
2023-04-27T00:36:51.618Z,518.59
2023-04-27T00:37:03.585Z,518.58
2023-04-27T00:37:14.597Z,518.59
2023-04-27T00:37:26.576Z,518.60
2023-04-27T00:37:37.588Z,518.59
2023-04-27T00:37:48.591Z,518.64
2023-04-27T00:37:59.588Z,518.58
2023-04-27T00:38:10.617Z,518.59
2023-04-27T00:38:22.602Z,518.60
2023-04-27T00:38:33.591Z,518.60
2023-04-27T00:38:44.584Z,518.60
2023-04-27T00:38:55.603Z,518.62
2023-04-27T00:39:06.654Z,518.61
2023-04-27T00:39:18.614Z,518.62
2023-04-27T00:39:30.582Z,518.61
2023-04-27T00:39:42.609Z,518.60
2023-04-27T00:39:54.593Z,518.60
2023-04-27T00:40:05.584Z,518.61
2023-04-27T00:40:16.589Z,518.62
2023-04-27T00:40:27.589Z,518.61
2023-04-27T00:40:38.609Z,518.61
2023-04-27T00:40:49.616Z,518.62
2023-04-27T00:41:00.606Z,518.59
2023-04-27T00:41:12.589Z,518.62
2023-04-27T00:41:23.567Z,518.59
2023-04-27T00:41:34.567Z,518.61
2023-04-27T00:41:45.575Z,518.59
2023-04-27T00:41:56.589Z,518.59
2023-04-27T00:42:07.579Z,518.60
2023-04-27T00:42:18.607Z,518.62
2023-04-27T00:42:29.604Z,518.61
2023-04-27T00:42:40.603Z,518.61
2023-04-27T00:42:51.605Z,518.60
2023-04-27T00:43:03.580Z,518.59
2023-04-27T00:43:14.585Z,518.61
2023-04-27T00:43:25.588Z,518.60
2023-04-27T00:43:36.599Z,518.60
2023-04-27T00:43:47.614Z,518.58
2023-04-27T00:43:58.609Z,518.57
2023-04-27T00:44:09.602Z,518.60
2023-04-27T00:44:21.571Z,518.60
2023-04-27T00:44:32.584Z,518.62
2023-04-27T00:44:43.614Z,518.65
2023-04-27T00:44:55.588Z,518.65
2023-04-27T00:45:06.584Z,518.66
2023-04-27T00:45:17.592Z,518.67
2023-04-27T00:45:28.599Z,518.70
2023-04-27T00:45:39.633Z,518.71
2023-04-27T00:45:51.634Z,518.70
2023-04-27T00:46:03.637Z,518.73
2023-04-27T00:46:14.612Z,518.76
2023-04-27T00:46:25.581Z,518.78
2023-04-27T00:46:36.558Z,518.82
2023-04-27T00:46:47.553Z,518.80
2023-04-27T00:46:58.570Z,518.81
2023-04-27T00:47:09.610Z,518.82
2023-04-27T00:47:20.629Z,518.81
2023-04-27T00:47:32.660Z,518.83
2023-04-27T00:47:44.682Z,518.84
2023-04-27T00:47:56.617Z,518.84
2023-04-27T00:48:08.646Z,518.84
2023-04-27T00:48:19.602Z,518.85
2023-04-27T00:48:31.586Z,518.80
2023-04-27T00:48:42.584Z,518.82
2023-04-27T00:48:53.587Z,518.82
2023-04-27T00:49:04.613Z,518.81
2023-04-27T00:49:15.610Z,518.80
2023-04-27T00:49:26.601Z,518.78
2023-04-27T00:49:37.617Z,518.78
2023-04-27T00:49:48.600Z,518.75
2023-04-27T00:49:59.594Z,518.73
2023-04-27T00:50:10.671Z,518.70
2023-04-27T00:50:21.571Z,518.69
2023-04-27T00:50:32.594Z,518.70
2023-04-27T00:50:43.573Z,518.71
2023-04-27T00:50:54.574Z,518.68
2023-04-27T00:51:05.598Z,518.69
2023-04-27T00:51:17.594Z,518.67
2023-04-27T00:51:28.592Z,518.64
2023-04-27T00:51:39.602Z,518.62
2023-04-27T00:51:51.595Z,518.60
2023-04-27T00:52:02.599Z,518.59
2023-04-27T00:52:13.584Z,518.56
2023-04-27T00:52:25.582Z,518.54
2023-04-27T00:52:36.585Z,518.54
2023-04-27T00:52:48.588Z,518.51
2023-04-27T00:52:59.576Z,518.54
2023-04-27T00:53:10.582Z,518.51
2023-04-27T00:53:21.601Z,518.49
2023-04-27T00:53:33.621Z,518.45
2023-04-27T00:53:45.589Z,518.43
2023-04-27T00:53:56.583Z,518.40
2023-04-27T00:54:07.582Z,518.39
2023-04-27T00:54:18.578Z,518.37
2023-04-27T00:54:29.575Z,518.33
2023-04-27T00:54:41.614Z,518.32
2023-04-27T00:54:53.610Z,518.30
2023-04-27T00:55:05.578Z,518.28
2023-04-27T00:55:16.594Z,518.27
2023-04-27T00:55:27.622Z,518.23
2023-04-27T00:55:39.585Z,518.24
2023-04-27T00:55:50.589Z,518.22
2023-04-27T00:56:01.575Z,518.24
2023-04-27T00:56:12.583Z,518.25
2023-04-27T00:56:23.590Z,518.22
2023-04-27T00:56:35.580Z,518.25
2023-04-27T00:56:46.579Z,518.24
2023-04-27T00:56:57.576Z,518.21
2023-04-27T00:57:08.590Z,518.21
2023-04-27T00:57:19.588Z,518.23
2023-04-27T00:57:31.589Z,518.24
2023-04-27T00:57:42.576Z,518.23
2023-04-27T00:57:54.588Z,518.22
2023-04-27T00:58:05.588Z,518.22
2023-04-27T00:58:16.568Z,518.22
2023-04-27T00:58:27.581Z,518.19
2023-04-27T00:58:38.585Z,518.22
2023-04-27T00:58:49.577Z,518.20
2023-04-27T00:59:00.588Z,518.19
2023-04-27T00:59:11.719Z,518.19
2023-04-27T00:59:22.570Z,518.20
2023-04-27T00:59:33.568Z,518.21
2023-04-27T00:59:44.573Z,518.23
2023-04-27T00:59:55.573Z,518.22
2023-04-27T01:00:06.615Z,518.23
2023-04-27T01:00:18.590Z,518.26
2023-04-27T01:00:29.581Z,518.26
2023-04-27T01:00:40.597Z,518.28
2023-04-27T01:00:51.647Z,518.30
2023-04-27T01:01:03.671Z,518.27
2023-04-27T01:01:15.617Z,518.28
2023-04-27T01:01:27.681Z,518.30
2023-04-27T01:01:38.631Z,518.30
2023-04-27T01:01:50.671Z,518.31
2023-04-27T01:02:01.611Z,518.31
2023-04-27T01:02:13.811Z,518.31
2023-04-27T01:02:25.691Z,518.32
2023-04-27T01:02:36.742Z,518.31
2023-04-27T01:02:48.655Z,518.35
2023-04-27T01:02:59.753Z,518.35
2023-04-27T01:03:10.767Z,518.34
2023-04-27T01:03:22.725Z,518.35
2023-04-27T01:03:33.753Z,518.34
2023-04-27T01:03:44.713Z,518.35
2023-04-27T01:03:55.823Z,518.37
2023-04-27T01:04:07.722Z,518.35
2023-04-27T01:04:18.747Z,518.37
2023-04-27T01:04:30.790Z,518.36
2023-04-27T01:04:41.708Z,518.36
2023-04-27T01:04:52.556Z,518.37
2023-04-27T01:05:03.628Z,518.37
2023-04-27T01:05:14.566Z,518.38
2023-04-27T01:05:25.595Z,518.37
2023-04-27T01:05:36.601Z,518.36
2023-04-27T01:05:47.597Z,518.34
2023-04-27T01:05:58.592Z,518.32
2023-04-27T01:06:09.607Z,518.30
2023-04-27T01:06:20.601Z,518.29
2023-04-27T01:06:31.592Z,518.28
2023-04-27T01:06:42.624Z,518.29
2023-04-27T01:06:53.605Z,518.30
2023-04-27T01:07:05.583Z,518.28
2023-04-27T01:07:16.593Z,518.25
2023-04-27T01:07:28.569Z,518.23
2023-04-27T01:07:39.609Z,518.24
2023-04-27T01:07:50.590Z,518.21
2023-04-27T01:08:01.603Z,518.20
2023-04-27T01:08:13.596Z,518.18
2023-04-27T01:08:25.586Z,518.17
2023-04-27T01:08:36.594Z,518.16
2023-04-27T01:08:47.576Z,518.14
2023-04-27T01:08:58.585Z,518.14
2023-04-27T01:09:09.591Z,518.13
2023-04-27T01:09:20.617Z,518.12
2023-04-27T01:09:32.583Z,518.13
2023-04-27T01:09:44.590Z,518.11
2023-04-27T01:09:55.588Z,518.08
2023-04-27T01:10:06.610Z,518.07
2023-04-27T01:10:18.584Z,518.05
2023-04-27T01:10:29.607Z,518.03
2023-04-27T01:10:40.585Z,518.05
2023-04-27T01:10:51.563Z,518.07
2023-04-27T01:11:02.569Z,518.06
2023-04-27T01:11:13.578Z,518.08
2023-04-27T01:11:24.569Z,518.07
2023-04-27T01:11:35.574Z,518.09
2023-04-27T01:11:46.558Z,518.08
2023-04-27T01:11:57.599Z,518.09
2023-04-27T01:12:08.595Z,518.08
2023-04-27T01:12:19.603Z,518.08
2023-04-27T01:12:31.591Z,518.09
2023-04-27T01:12:42.596Z,518.11
2023-04-27T01:12:53.598Z,518.12
2023-04-27T01:13:05.594Z,518.12
2023-04-27T01:13:16.594Z,518.13
2023-04-27T01:13:27.590Z,518.13
2023-04-27T01:13:38.623Z,518.13
2023-04-27T01:13:50.594Z,518.14
2023-04-27T01:14:01.596Z,518.12
2023-04-27T01:14:12.611Z,518.14
2023-04-27T01:14:23.606Z,518.10
2023-04-27T01:14:34.611Z,518.10
2023-04-27T01:14:46.619Z,518.10
2023-04-27T01:14:58.582Z,518.12
2023-04-27T01:15:09.581Z,518.10
2023-04-27T01:15:20.592Z,518.11
2023-04-27T01:15:31.596Z,518.10
2023-04-27T01:15:42.592Z,518.10
2023-04-27T01:15:53.589Z,518.12
2023-04-27T01:16:04.590Z,518.10
2023-04-27T01:16:15.627Z,518.09
2023-04-27T01:16:27.634Z,518.08
2023-04-27T01:16:39.644Z,518.06
2023-04-27T01:16:50.625Z,518.06
2023-04-27T01:17:01.585Z,518.04
2023-04-27T01:17:12.603Z,518.04
2023-04-27T01:17:23.643Z,518.03
2023-04-27T01:17:35.624Z,518.04
2023-04-27T01:17:47.591Z,518.04
2023-04-27T01:17:58.639Z,518.05
2023-04-27T01:18:10.625Z,518.06
2023-04-27T01:18:22.623Z,518.03
2023-04-27T01:18:34.610Z,518.05
2023-04-27T01:18:45.619Z,518.03
2023-04-27T01:18:56.606Z,518.07
2023-04-27T01:19:07.622Z,518.07
2023-04-27T01:19:19.602Z,518.10
2023-04-27T01:19:30.588Z,518.14
2023-04-27T01:19:41.613Z,518.16
2023-04-27T01:19:53.591Z,518.17
2023-04-27T01:20:04.607Z,518.20
2023-04-27T01:20:16.601Z,518.21
2023-04-27T01:20:27.607Z,518.22
2023-04-27T01:20:38.701Z,518.24
2023-04-27T01:20:50.650Z,518.27
2023-04-27T01:21:02.640Z,518.29
2023-04-27T01:21:14.622Z,518.31
2023-04-27T01:21:26.596Z,518.34
2023-04-27T01:21:37.609Z,518.36
2023-04-27T01:21:48.618Z,518.38
2023-04-27T01:21:59.608Z,518.41
2023-04-27T01:22:10.608Z,518.42
2023-04-27T01:22:22.577Z,518.42
2023-04-27T01:22:34.583Z,518.45
2023-04-27T01:22:46.598Z,518.48
2023-04-27T01:22:57.610Z,518.47
2023-04-27T01:23:08.602Z,518.46
2023-04-27T01:23:19.622Z,518.49
2023-04-27T01:23:31.596Z,518.48
2023-04-27T01:23:42.584Z,518.48
2023-04-27T01:23:53.586Z,518.50
2023-04-27T01:24:04.588Z,518.48
2023-04-27T01:24:15.588Z,518.47
2023-04-27T01:24:26.584Z,518.47
2023-04-27T01:24:37.595Z,518.45
2023-04-27T01:24:48.581Z,518.47
2023-04-27T01:24:59.573Z,518.45
2023-04-27T01:25:10.582Z,518.44
2023-04-27T01:25:21.608Z,518.45
2023-04-27T01:25:32.605Z,518.46
2023-04-27T01:25:43.609Z,518.41
2023-04-27T01:25:54.608Z,518.45
2023-04-27T01:26:05.592Z,518.44
2023-04-27T01:26:16.586Z,518.44
2023-04-27T01:26:27.585Z,518.44
2023-04-27T01:26:38.572Z,518.40
2023-04-27T01:26:49.576Z,518.41
2023-04-27T01:27:00.589Z,518.43
2023-04-27T01:27:11.598Z,518.42
2023-04-27T01:27:23.596Z,518.42
2023-04-27T01:27:35.575Z,518.42
2023-04-27T01:27:46.576Z,518.39
2023-04-27T01:27:57.589Z,518.42
2023-04-27T01:28:08.570Z,518.43
2023-04-27T01:28:19.578Z,518.43
2023-04-27T01:28:30.579Z,518.40
2023-04-27T01:28:41.585Z,518.42
2023-04-27T01:28:53.602Z,518.39
2023-04-27T01:29:05.575Z,518.43
2023-04-27T01:29:16.587Z,518.42
2023-04-27T01:29:27.601Z,518.41
2023-04-27T01:29:38.602Z,518.41
2023-04-27T01:29:50.626Z,518.40
2023-04-27T01:30:02.606Z,518.41
2023-04-27T01:30:13.601Z,518.40
2023-04-27T01:30:24.603Z,518.41
2023-04-27T01:30:35.614Z,518.40
2023-04-27T01:30:47.597Z,518.38
2023-04-27T01:30:58.611Z,518.38
2023-04-27T01:31:10.668Z,518.33
2023-04-27T01:31:22.670Z,518.34
2023-04-27T01:31:33.607Z,518.33
2023-04-27T01:31:44.586Z,518.32
2023-04-27T01:31:55.581Z,518.31
2023-04-27T01:32:06.592Z,518.29
2023-04-27T01:32:18.594Z,518.27
2023-04-27T01:32:29.592Z,518.29
2023-04-27T01:32:40.689Z,518.28
2023-04-27T01:32:52.591Z,518.26
2023-04-27T01:33:03.631Z,518.25
2023-04-27T01:33:14.562Z,518.25
2023-04-27T01:33:25.571Z,518.26
2023-04-27T01:33:36.580Z,518.27
2023-04-27T01:33:47.589Z,518.25
2023-04-27T01:33:58.583Z,518.22
2023-04-27T01:34:09.581Z,518.22
2023-04-27T01:34:20.587Z,518.20
2023-04-27T01:34:31.593Z,518.21
2023-04-27T01:34:42.594Z,518.20
2023-04-27T01:34:53.599Z,518.19
2023-04-27T01:35:04.677Z,518.20
2023-04-27T01:35:15.610Z,518.18
2023-04-27T01:35:28.444Z,518.16
2023-04-27T01:35:38.604Z,518.16
2023-04-27T01:35:49.601Z,518.12
2023-04-27T01:36:01.620Z,518.12
2023-04-27T01:36:13.591Z,518.09
2023-04-27T01:36:24.584Z,518.06
2023-04-27T01:36:35.587Z,518.05
2023-04-27T01:36:46.582Z,518.03
2023-04-27T01:36:57.590Z,517.98
2023-04-27T01:37:09.594Z,517.99
2023-04-27T01:37:20.588Z,517.96
2023-04-27T01:37:31.593Z,517.92
2023-04-27T01:37:43.585Z,517.89
2023-04-27T01:37:54.586Z,517.86
2023-04-27T01:38:05.586Z,517.84
2023-04-27T01:38:16.589Z,517.82
2023-04-27T01:38:27.589Z,517.79
2023-04-27T01:38:38.609Z,517.76
2023-04-27T01:38:50.587Z,517.75
2023-04-27T01:39:01.570Z,517.72
2023-04-27T01:39:12.665Z,517.67
2023-04-27T01:39:23.645Z,517.67
2023-04-27T01:39:35.606Z,517.63
2023-04-27T01:39:46.605Z,517.61
2023-04-27T01:39:57.600Z,517.58
2023-04-27T01:40:08.587Z,517.57
2023-04-27T01:40:19.576Z,517.56
2023-04-27T01:40:30.598Z,517.55
2023-04-27T01:40:42.587Z,517.50
2023-04-27T01:40:53.582Z,517.48
2023-04-27T01:41:04.568Z,517.48
2023-04-27T01:41:16.579Z,517.45
2023-04-27T01:41:27.577Z,517.41
2023-04-27T01:41:38.581Z,517.43
2023-04-27T01:41:50.590Z,517.39
2023-04-27T01:42:01.597Z,517.40
2023-04-27T01:42:12.583Z,517.38
2023-04-27T01:42:24.589Z,517.34
2023-04-27T01:42:35.607Z,517.32
2023-04-27T01:42:46.598Z,517.34
2023-04-27T01:42:57.585Z,517.29
2023-04-27T01:43:08.579Z,517.28
2023-04-27T01:43:19.580Z,517.30
2023-04-27T01:43:30.583Z,517.28
2023-04-27T01:43:41.596Z,517.27
2023-04-27T01:43:52.593Z,517.26
2023-04-27T01:44:03.581Z,517.23
2023-04-27T01:44:14.601Z,517.22
2023-04-27T01:44:25.605Z,517.20
2023-04-27T01:44:36.606Z,517.22
2023-04-27T01:44:47.606Z,517.22
2023-04-27T01:44:58.607Z,517.19
2023-04-27T01:45:09.586Z,517.17
2023-04-27T01:45:20.596Z,517.16
2023-04-27T01:45:32.585Z,517.16
2023-04-27T01:45:43.572Z,517.16
2023-04-27T01:45:54.591Z,517.13
2023-04-27T01:46:05.649Z,517.15
2023-04-27T01:46:17.693Z,517.11
2023-04-27T01:46:29.596Z,517.12
2023-04-27T01:46:40.670Z,517.13
2023-04-27T01:46:52.616Z,517.11
2023-04-27T01:47:04.669Z,517.08
2023-04-27T01:47:15.561Z,517.08
2023-04-27T01:47:26.585Z,517.06
2023-04-27T01:47:37.626Z,517.07
2023-04-27T01:47:49.610Z,517.05
2023-04-27T01:48:01.612Z,517.04
2023-04-27T01:48:12.570Z,517.00
2023-04-27T01:48:23.559Z,517.00
2023-04-27T01:48:34.556Z,516.96
2023-04-27T01:48:45.576Z,516.95
2023-04-27T01:48:56.562Z,516.93
2023-04-27T01:49:07.558Z,516.94
2023-04-27T01:49:18.677Z,516.94
2023-04-27T01:49:30.549Z,516.90
2023-04-27T01:49:41.570Z,516.89
2023-04-27T01:49:52.562Z,516.90
2023-04-27T01:50:03.560Z,516.89
2023-04-27T01:50:14.563Z,516.89
2023-04-27T01:50:25.558Z,516.86
2023-04-27T01:50:36.552Z,516.87
2023-04-27T01:50:47.544Z,516.88
2023-04-27T01:50:58.643Z,516.86
2023-04-27T01:51:10.594Z,516.88
2023-04-27T01:51:21.609Z,516.89
2023-04-27T01:51:33.579Z,516.89
2023-04-27T01:51:44.586Z,516.90
2023-04-27T01:51:55.568Z,516.89
2023-04-27T01:52:06.578Z,516.91
2023-04-27T01:52:17.585Z,516.91
2023-04-27T01:52:28.581Z,516.91
2023-04-27T01:52:39.571Z,516.92
2023-04-27T01:52:50.606Z,516.91
2023-04-27T01:53:01.596Z,516.94
2023-04-27T01:53:12.608Z,516.92
2023-04-27T01:53:23.607Z,516.94
2023-04-27T01:53:35.612Z,516.91
2023-04-27T01:53:47.592Z,516.92
2023-04-27T01:53:58.586Z,516.93
2023-04-27T01:54:09.579Z,516.91
2023-04-27T01:54:21.582Z,516.88
2023-04-27T01:54:32.580Z,516.88
2023-04-27T01:54:43.582Z,516.87
2023-04-27T01:54:54.573Z,516.86
2023-04-27T01:55:05.570Z,516.85
2023-04-27T01:55:16.628Z,516.83
2023-04-27T01:55:28.591Z,516.82
2023-04-27T01:55:39.622Z,516.79
2023-04-27T01:55:51.585Z,516.83
2023-04-27T01:56:02.823Z,516.82
2023-04-27T01:56:14.573Z,516.82
2023-04-27T01:56:25.581Z,516.80
2023-04-27T01:56:36.601Z,516.83
2023-04-27T01:56:47.597Z,516.83
2023-04-27T01:56:58.635Z,516.83
2023-04-27T01:57:10.585Z,516.85
2023-04-27T01:57:21.584Z,516.83
2023-04-27T01:57:32.581Z,516.83
2023-04-27T01:57:43.589Z,516.85
2023-04-27T01:57:54.579Z,516.82
2023-04-27T01:58:05.574Z,516.83
2023-04-27T01:58:16.587Z,516.82
2023-04-27T01:58:27.582Z,516.82
2023-04-27T01:58:38.596Z,516.80
2023-04-27T01:58:49.592Z,516.79
2023-04-27T01:59:00.599Z,516.78
2023-04-27T01:59:12.720Z,516.77
2023-04-27T01:59:23.556Z,516.74
2023-04-27T01:59:34.591Z,516.72
2023-04-27T01:59:45.587Z,516.71
2023-04-27T01:59:56.590Z,516.69
2023-04-27T02:00:07.592Z,516.68
2023-04-27T02:00:18.604Z,516.66
2023-04-27T02:00:30.579Z,516.64
2023-04-27T02:00:41.602Z,516.61
2023-04-27T02:00:52.606Z,516.55
2023-04-27T02:01:03.623Z,516.55
2023-04-27T02:01:15.617Z,516.54
2023-04-27T02:01:27.615Z,516.49
2023-04-27T02:01:38.676Z,516.44
2023-04-27T02:01:50.646Z,516.42
2023-04-27T02:02:02.663Z,516.41
2023-04-27T02:02:13.644Z,516.40
2023-04-27T02:02:24.718Z,516.39
2023-04-27T02:02:36.713Z,516.36
2023-04-27T02:02:48.711Z,516.33
2023-04-27T02:03:00.710Z,516.30
2023-04-27T02:03:11.721Z,516.28
2023-04-27T02:03:23.666Z,516.23
2023-04-27T02:03:35.772Z,516.19
2023-04-27T02:03:46.846Z,516.20
2023-04-27T02:03:57.819Z,516.16
2023-04-27T02:04:08.836Z,516.11
2023-04-27T02:04:20.844Z,516.08
2023-04-27T02:04:32.822Z,516.05
2023-04-27T02:04:44.566Z,516.04
2023-04-27T02:04:55.612Z,515.99
2023-04-27T02:05:06.630Z,515.97
2023-04-27T02:05:18.603Z,515.93
2023-04-27T02:05:29.597Z,515.93
2023-04-27T02:05:40.592Z,515.94
2023-04-27T02:05:51.592Z,515.89
2023-04-27T02:06:03.602Z,515.87
2023-04-27T02:06:14.603Z,515.84
2023-04-27T02:06:25.595Z,515.81
2023-04-27T02:06:36.600Z,515.77
2023-04-27T02:06:47.607Z,515.76
2023-04-27T02:06:59.579Z,515.71
2023-04-27T02:07:11.591Z,515.67
2023-04-27T02:07:22.609Z,515.64
2023-04-27T02:07:34.586Z,515.61
2023-04-27T02:07:45.584Z,515.59
2023-04-27T02:07:56.593Z,515.56
2023-04-27T02:08:07.623Z,515.52
2023-04-27T02:08:19.596Z,515.49
2023-04-27T02:08:30.605Z,515.47
2023-04-27T02:08:41.606Z,515.46
2023-04-27T02:08:52.593Z,515.44
2023-04-27T02:09:03.602Z,515.42
2023-04-27T02:09:14.797Z,515.41
2023-04-27T02:09:25.586Z,515.41
2023-04-27T02:09:36.590Z,515.37
2023-04-27T02:09:47.598Z,515.35
2023-04-27T02:09:58.594Z,515.33
2023-04-27T02:10:09.591Z,515.29
2023-04-27T02:10:20.602Z,515.24
2023-04-27T02:10:31.613Z,515.23
2023-04-27T02:10:43.610Z,515.22
2023-04-27T02:10:54.595Z,515.19
2023-04-27T02:11:06.590Z,515.14
2023-04-27T02:11:17.592Z,515.10
2023-04-27T02:11:28.598Z,515.08
2023-04-27T02:11:39.590Z,515.04
2023-04-27T02:11:50.592Z,515.01
2023-04-27T02:12:01.593Z,515.00
2023-04-27T02:12:12.594Z,514.97
2023-04-27T02:12:23.592Z,514.96
2023-04-27T02:12:34.577Z,514.96
2023-04-27T02:12:45.588Z,514.95
2023-04-27T02:12:56.583Z,514.94
2023-04-27T02:13:07.686Z,514.92
2023-04-27T02:13:18.633Z,514.93
2023-04-27T02:13:30.589Z,514.90
2023-04-27T02:13:42.579Z,514.89
2023-04-27T02:13:53.595Z,514.88
2023-04-27T02:14:05.577Z,514.88
2023-04-27T02:14:16.579Z,514.88
2023-04-27T02:14:27.582Z,514.87
2023-04-27T02:14:38.571Z,514.87
2023-04-27T02:14:49.579Z,514.83
2023-04-27T02:15:00.562Z,514.85
2023-04-27T02:15:11.564Z,514.84
2023-04-27T02:15:22.577Z,514.84
2023-04-27T02:15:33.560Z,514.87
2023-04-27T02:15:44.587Z,514.90
2023-04-27T02:15:55.668Z,514.89
2023-04-27T02:16:07.737Z,514.89
2023-04-27T02:16:19.620Z,514.90
2023-04-27T02:16:30.652Z,514.89
2023-04-27T02:16:41.651Z,514.90
2023-04-27T02:16:52.577Z,514.92
2023-04-27T02:17:03.576Z,514.89
2023-04-27T02:17:14.582Z,514.88
2023-04-27T02:17:25.613Z,514.85
2023-04-27T02:17:36.737Z,514.85
2023-04-27T02:17:47.638Z,514.85
2023-04-27T02:17:58.620Z,514.84
2023-04-27T02:18:09.640Z,514.83
2023-04-27T02:18:20.569Z,514.83
2023-04-27T02:18:32.617Z,514.83
2023-04-27T02:18:44.619Z,514.84
2023-04-27T02:18:55.628Z,514.83
2023-04-27T02:19:07.613Z,514.84
2023-04-27T02:19:18.622Z,514.83
2023-04-27T02:19:30.586Z,514.84
2023-04-27T02:19:41.587Z,514.87
2023-04-27T02:19:52.589Z,514.89
2023-04-27T02:20:03.582Z,514.86
2023-04-27T02:20:14.593Z,514.87